createdAt,value
2022-08-20T00:02:39.584Z,16.66
2022-08-20T00:09:43.339Z,16.65
2022-08-20T00:16:47.647Z,16.62
2022-08-20T00:23:51.365Z,16.58
2022-08-20T00:30:54.947Z,16.51
2022-08-20T00:38:00.510Z,16.45
2022-08-20T00:45:03.844Z,16.38
2022-08-20T00:52:09.556Z,16.39
2022-08-20T00:59:14.944Z,16.34
2022-08-20T01:06:18.040Z,16.21
2022-08-20T01:13:23.682Z,16.16
2022-08-20T01:20:28.472Z,16.15
2022-08-20T01:27:32.167Z,16.15
2022-08-20T01:34:37.460Z,16.11
2022-08-20T01:41:53.431Z,16.03
2022-08-20T01:48:57.019Z,16.01
2022-08-20T01:55:59.397Z,16.07
2022-08-20T02:03:03.197Z,16.11
2022-08-20T02:10:07.880Z,16.13
2022-08-20T02:17:10.394Z,16.16
2022-08-20T02:24:12.672Z,16.13
2022-08-20T02:31:16.500Z,16.06
2022-08-20T02:38:20.884Z,16.05
2022-08-20T02:45:23.133Z,16.11
2022-08-20T02:52:26.675Z,16.24
2022-08-20T02:59:28.889Z,16.27
2022-08-20T03:06:31.540Z,16.26
2022-08-20T03:13:35.143Z,16.25
2022-08-20T03:20:37.483Z,16.30
2022-08-20T03:27:41.867Z,16.36
2022-08-20T03:34:45.422Z,16.30
2022-08-20T03:41:47.918Z,16.21
2022-08-20T03:48:50.217Z,16.21
2022-08-20T03:56:02.478Z,16.18
2022-08-20T04:03:05.442Z,16.11
2022-08-20T04:10:11.841Z,16.08
2022-08-20T04:17:17.825Z,16.04
2022-08-20T04:24:31.928Z,16.02
2022-08-20T04:31:35.091Z,16.05
2022-08-20T04:38:48.035Z,16.05
2022-08-20T04:45:55.973Z,16.14
2022-08-20T04:52:59.635Z,16.29
2022-08-20T05:00:05.042Z,16.43
2022-08-20T05:07:08.801Z,16.54
2022-08-20T05:14:11.284Z,16.70
2022-08-20T05:21:17.113Z,16.93
2022-08-20T05:28:23.839Z,17.01
2022-08-20T05:35:26.197Z,17.59
2022-08-20T05:42:30.191Z,18.03
2022-08-20T05:49:33.941Z,17.87
2022-08-20T05:56:36.288Z,17.79
2022-08-20T06:03:58.607Z,17.76
2022-08-20T06:11:00.922Z,17.82
2022-08-20T06:18:23.142Z,17.89
2022-08-20T06:25:33.866Z,18.01
2022-08-20T06:32:40.092Z,18.42
2022-08-20T06:39:42.349Z,18.41
2022-08-20T06:46:45.997Z,18.44
2022-08-20T06:53:48.210Z,18.44
2022-08-20T07:00:50.856Z,18.34
2022-08-20T07:07:54.460Z,18.59
2022-08-20T07:14:56.657Z,18.67
2022-08-20T07:21:58.927Z,18.38
2022-08-20T07:29:02.462Z,18.49
2022-08-20T07:36:05.003Z,18.49
2022-08-20T07:43:07.233Z,18.52
2022-08-20T07:50:15.107Z,18.61
2022-08-20T07:57:18.720Z,18.74
2022-08-20T08:04:20.916Z,18.91
2022-08-20T08:11:24.548Z,19.33
2022-08-20T08:18:31.810Z,19.49
2022-08-20T08:25:34.187Z,19.49
2022-08-20T08:32:38.021Z,19.69
2022-08-20T08:39:41.719Z,20.27
2022-08-20T08:46:48.307Z,20.37
2022-08-20T08:53:54.717Z,20.61
2022-08-20T09:01:01.617Z,20.68
2022-08-20T09:08:06.515Z,21.56
2022-08-20T09:15:10.600Z,22.25
2022-08-20T09:22:16.266Z,21.63
2022-08-20T09:29:18.491Z,21.54
2022-08-20T09:36:31.894Z,21.37
2022-08-20T09:43:35.039Z,21.55
2022-08-20T09:50:37.493Z,21.79
2022-08-20T09:57:41.060Z,21.67
2022-08-20T10:04:43.372Z,21.58
2022-08-20T10:11:47.929Z,21.52
2022-08-20T10:18:51.550Z,21.38
2022-08-20T10:25:53.841Z,21.18
2022-08-20T10:32:56.195Z,20.81
2022-08-20T10:40:01.965Z,21.16
2022-08-20T10:47:15.777Z,21.42
2022-08-20T10:54:18.218Z,21.57
2022-08-20T11:01:32.562Z,20.00
2022-08-20T11:08:36.200Z,19.43
2022-08-20T11:15:39.814Z,19.27
2022-08-20T11:22:43.377Z,19.18
2022-08-20T11:29:45.646Z,19.39
2022-08-20T11:36:48.307Z,19.59
2022-08-20T11:44:17.576Z,19.88
2022-08-20T11:51:14.027Z,20.13
2022-08-20T11:58:16.308Z,20.98
2022-08-20T12:05:20.490Z,22.52
2022-08-20T12:12:24.070Z,22.22
2022-08-20T12:19:26.746Z,21.50
2022-08-20T12:26:30.988Z,20.22
2022-08-20T12:33:33.214Z,19.31
2022-08-20T12:40:35.543Z,18.78
2022-08-20T12:47:40.256Z,18.53
2022-08-20T12:54:42.632Z,18.47
2022-08-20T13:01:45.679Z,19.06
2022-08-20T13:08:49.381Z,19.72
2022-08-20T13:15:51.721Z,19.72
2022-08-20T13:22:54.015Z,19.66
2022-08-20T13:29:59.025Z,19.60
2022-08-20T13:37:01.511Z,19.55
2022-08-20T13:44:04.152Z,19.76
2022-08-20T13:51:07.813Z,19.71
2022-08-20T13:58:10.016Z,19.70
2022-08-20T14:05:14.323Z,19.90
2022-08-20T14:12:23.213Z,19.84
2022-08-20T14:19:25.484Z,19.74
2022-08-20T14:26:27.702Z,19.71
2022-08-20T14:33:31.244Z,19.31
2022-08-20T14:40:33.685Z,19.70
2022-08-20T14:47:36.844Z,20.02
2022-08-20T14:54:41.074Z,20.13
2022-08-20T15:01:43.459Z,20.51
2022-08-20T15:08:46.908Z,20.77
2022-08-20T15:15:52.803Z,20.81
2022-08-20T15:22:55.163Z,20.68
2022-08-20T15:29:57.379Z,20.53
2022-08-20T15:37:05.799Z,20.41
2022-08-20T15:44:08.047Z,20.48
2022-08-20T15:51:18.007Z,20.36
2022-08-20T15:58:24.276Z,20.33
2022-08-20T16:05:32.255Z,20.20
2022-08-20T16:12:35.893Z,20.45
2022-08-20T16:19:46.946Z,20.60
2022-08-20T16:26:59.591Z,21.00
2022-08-20T16:34:32.894Z,20.69
2022-08-20T16:41:32.444Z,20.34
2022-08-20T16:48:36.993Z,20.26
2022-08-20T16:55:41.944Z,20.41
2022-08-20T17:02:52.943Z,20.37
2022-08-20T17:10:09.206Z,20.23
2022-08-20T17:17:19.379Z,20.07
2022-08-20T17:24:25.055Z,19.64
2022-08-20T17:31:38.487Z,19.41
2022-08-20T17:38:46.540Z,19.33
2022-08-20T17:45:50.108Z,19.35
2022-08-20T17:52:53.318Z,19.14
2022-08-20T18:00:02.464Z,18.99
2022-08-20T18:07:13.379Z,18.89
2022-08-20T18:14:19.535Z,18.75
2022-08-20T18:21:31.753Z,18.68
2022-08-20T18:28:38.742Z,18.55
2022-08-20T18:35:45.933Z,18.53
2022-08-20T18:42:48.510Z,18.43
2022-08-20T18:50:02.077Z,18.35
2022-08-20T18:57:05.740Z,18.14
2022-08-20T19:04:18.796Z,18.08
2022-08-20T19:11:43.032Z,17.89
2022-08-20T19:18:50.501Z,17.74
2022-08-20T19:25:55.820Z,17.63
2022-08-20T19:32:59.831Z,17.68
2022-08-20T19:40:02.296Z,17.61
2022-08-20T19:47:17.939Z,17.58
2022-08-20T19:54:24.437Z,17.47
2022-08-20T20:01:26.725Z,17.46
2022-08-20T20:08:30.389Z,17.46
2022-08-20T20:15:33.937Z,17.31
2022-08-20T20:22:48.272Z,17.26
2022-08-20T20:29:51.797Z,17.23
2022-08-20T20:37:04.540Z,17.10
2022-08-20T20:44:15.962Z,16.97
2022-08-20T20:51:24.624Z,16.82
2022-08-20T20:58:28.296Z,16.77
2022-08-20T21:06:42.461Z,16.54
2022-08-20T21:13:44.946Z,16.59
2022-08-20T21:20:52.484Z,16.49
2022-08-20T21:27:56.016Z,16.27
2022-08-20T21:34:58.247Z,16.13
2022-08-20T21:42:02.369Z,16.10
2022-08-20T21:49:08.764Z,16.04
2022-08-20T21:56:10.982Z,16.07
2022-08-20T22:03:14.279Z,16.10
2022-08-20T22:10:18.139Z,16.14
2022-08-20T22:17:20.508Z,16.20
2022-08-20T22:24:22.900Z,16.21
2022-08-20T22:31:27.530Z,16.28
2022-08-20T22:38:30.023Z,16.34
2022-08-20T22:45:32.242Z,16.31
2022-08-20T22:52:35.959Z,16.31
2022-08-20T22:59:45.835Z,16.25
2022-08-20T23:06:51.979Z,16.20
2022-08-20T23:13:56.926Z,16.09
2022-08-20T23:20:59.190Z,15.91
2022-08-20T23:28:03.413Z,15.80
2022-08-20T23:35:08.428Z,15.67
2022-08-20T23:42:10.938Z,15.62
2022-08-20T23:49:13.158Z,15.64
2022-08-20T23:56:17.281Z,15.80
